Hel, Poland
Current Conditions -  °F | °C
As of 7:30 AM on Sunday 23 Nov 2014 (Local Time) from EPGD Reporting Station
Haze Haze  
Wind Chill: 36°   Ceiling: 300
Heat Index: 36°   Visibility: 1mi
Dew Point: 36°   Wind: 2mph
Humidity: 100%   Direction: NA
Pressure: 30.39"   Gusts: NA
Location:  54.6°N, 18.82°E
Report Text: EPGD 230530Z VRB02KT 1600 BR SCT001 BKN003 02/02 Q1029
Loading
Personal Weather Stations






























Interactive Weather Map New forecast layout! Learn more

10-Day Weather Forecast

Advertisements
Track Severe Weather on mobile